Time;durP1;ratioP1;P1;durP2;ratioP2;P2;SDS_P1;SDS_P2;PMS_P1;PMS_P2;Temp;Humidity;BMP_temperature;BMP_pressure;BME280_temperature;BME280_humidity;BME280_pressure;Samples;Min_cycle;Max_cycle;Signal;HPM_P1;HPM_P2
2022/09/19 00:02:41;;;;;;;1.48;0.90;;;8.20;92.50;;;;;;20823163;28;20029;-58
2022/09/19 00:12:44;;;;;;;2.05;0.70;;;8.40;93.10;;;;;;20774826;28;20557;-58
2022/09/19 00:24:45;;;;;;;1.67;0.90;;;7.90;94.70;;;;;;20822529;28;20037;-58
2022/09/19 00:33:08;;;;;;;2.30;0.90;;;7.60;96.10;;;;;;20805654;28;20037;-60
2022/09/19 00:43:14;;;;;;;2.40;0.80;;;7.50;94.80;;;;;;20792207;28;20065;-58
2022/09/19 00:53:21;;;;;;;2.60;1.10;;;7.30;96.70;;;;;;20723581;28;20494;-62
2022/09/19 01:03:28;;;;;;;1.63;0.87;;;7.00;96.70;;;;;;20716077;28;20045;-61
2022/09/19 01:13:52;;;;;;;2.20;1.08;;;7.20;95.10;;;;;;20799854;28;20107;-62
2022/09/19 01:24:20;;;;;;;2.80;1.15;;;7.60;95.60;;;;;;20765547;28;20445;-46
2022/09/19 01:34:33;;;;;;;2.30;0.85;;;7.60;95.50;;;;;;20754298;28;20169;-45
2022/09/19 01:44:36;;;;;;;2.20;1.25;;;7.20;95.50;;;;;;20793826;28;20037;-49
2022/09/19 01:55:06;;;;;;;2.75;1.20;;;7.10;96.60;;;;;;20795441;28;20088;-46
2022/09/19 02:05:27;;;;;;;3.47;1.15;;;6.70;96.90;;;;;;20816847;28;20029;-45
2022/09/19 02:15:33;;;;;;;2.05;1.23;;;6.60;96.40;;;;;;20833066;28;20096;-57
2022/09/19 02:25:37;;;;;;;3.63;1.13;;;6.60;96.30;;;;;;20830866;28;20107;-57
2022/09/19 02:35:50;;;;;;;3.47;1.20;;;6.40;96.70;;;;;;20831029;28;20025;-46
2022/09/19 02:46:11;;;;;;;2.58;1.10;;;6.40;97.20;;;;;;20762254;28;20038;-55
2022/09/19 02:56:15;;;;;;;;;;;6.30;96.70;;;;;;20788150;28;20095;-48
2022/09/19 03:06:27;;;;;;;2.42;1.02;;;6.50;96.70;;;;;;20812250;28;19986;-47
2022/09/19 03:16:34;;;;;;;2.03;1.10;;;6.60;96.60;;;;;;20811798;28;20045;-45
2022/09/19 03:26:38;;;;;;;2.45;1.15;;;6.60;96.40;;;;;;20794365;28;20450;-45
2022/09/19 03:36:43;;;;;;;2.95;1.30;;;6.30;97.00;;;;;;20757821;28;20395;-44
2022/09/19 03:46:50;;;;;;;2.88;1.30;;;6.20;96.80;;;;;;20711611;28;20398;-44
2022/09/19 03:56:54;;;;;;;2.67;1.33;;;6.30;96.30;;;;;;20821072;28;20041;-45
2022/09/19 04:06:56;;;;;;;2.40;1.15;;;6.30;97.00;;;;;;20823715;28;20063;-45
2022/09/19 04:17:00;;;;;;;2.50;1.10;;;6.20;97.70;;;;;;20790801;28;20033;-46
2022/09/19 04:27:07;;;;;;;2.67;0.93;;;6.20;96.70;;;;;;20805947;28;20397;-45
2022/09/19 04:37:12;;;;;;;2.97;1.33;;;6.10;97.20;;;;;;20789303;28;20091;-47
2022/09/19 04:47:17;;;;;;;2.42;0.98;;;6.10;96.70;;;;;;20742325;28;20525;-45
2022/09/19 04:57:20;;;;;;;1.85;0.88;;;6.00;97.10;;;;;;20739379;28;20038;-44
2022/09/19 05:07:33;;;;;;;1.85;0.93;;;6.20;96.60;;;;;;20747813;28;20555;-45
2022/09/19 05:17:38;;;;;;;1.52;0.82;;;6.30;96.20;;;;;;20820452;28;20064;-45
2022/09/19 05:27:42;;;;;;;1.55;0.90;;;6.40;96.30;;;;;;20820101;28;20482;-46
2022/09/19 05:37:46;;;;;;;1.73;0.90;;;6.40;95.90;;;;;;20786894;28;20092;-47
2022/09/19 05:48:06;;;;;;;1.90;0.68;;;6.60;96.20;;;;;;20722875;28;20049;-46
2022/09/19 05:58:13;;;;;;;2.45;0.88;;;6.80;96.20;;;;;;20793307;28;20398;-46
2022/09/19 06:08:17;;;;;;;0.85;0.50;;;6.90;94.20;;;;;;20833335;28;20034;-46
2022/09/19 06:18:20;;;;;;;0.98;0.52;;;9.00;92.40;;;;;;20832543;28;20037;-44
2022/09/19 06:28:29;;;;;;;1.10;0.52;;;9.40;88.20;;;;;;20815805;28;20084;-47
2022/09/19 06:38:40;;;;;;;0.77;0.52;;;10.10;86.90;;;;;;20798336;28;20470;-46
2022/09/19 06:49:09;;;;;;;1.08;0.63;;;9.80;87.30;;;;;;20691650;28;20079;-44
2022/09/19 06:59:26;;;;;;;0.83;0.47;;;10.30;91.50;;;;;;20830016;28;20091;-45
2022/09/19 07:09:29;;;;;;;0.98;0.40;;;11.00;88.00;;;;;;20795411;28;20029;-44
2022/09/19 07:19:32;;;;;;;0.90;0.50;;;11.80;81.90;;;;;;20777296;28;20356;-44
2022/09/19 07:30:04;;;;;;;1.38;0.30;;;12.30;80.80;;;;;;20479368;29;20544;-45
2022/09/19 07:40:08;;;;;;;3.15;0.60;;;12.80;80.00;;;;;;20536343;28;20047;-44
2022/09/19 07:50:29;;;;;;;2.88;0.60;;;13.30;75.60;;;;;;20487569;28;20191;-46
2022/09/19 08:00:54;;;;;;;0.80;0.40;;;13.70;80.20;;;;;;20622821;28;20069;-49
2022/09/19 08:11:21;;;;;;;0.88;0.40;;;13.80;76.90;;;;;;20807361;28;20064;-46
2022/09/19 08:21:25;;;;;;;1.23;0.32;;;14.00;75.60;;;;;;20822393;28;20037;-57
2022/09/19 08:31:30;;;;;;;0.65;0.40;;;14.20;76.40;;;;;;20791077;28;20056;-45
2022/09/19 08:41:38;;;;;;;0.40;0.30;;;14.70;79.20;;;;;;20805553;28;20038;-45
2022/09/19 08:51:56;;;;;;;0.55;0.20;;;15.10;74.40;;;;;;20743278;28;20452;-46
2022/09/19 09:02:19;;;;;;;0.65;0.38;;;15.40;75.20;;;;;;20805266;28;20065;-58
2022/09/19 09:13:10;;;;;;;1.67;0.30;;;15.50;72.00;;;;;;20804183;28;20034;-45
2022/09/19 09:23:21;;;;;;;0.70;0.40;;;15.70;72.30;;;;;;20787029;28;20405;-58
2022/09/19 09:33:58;;;;;;;1.65;0.52;;;16.50;83.70;;;;;;20829501;28;20095;-46
2022/09/19 09:44:34;;;;;;;0.50;0.30;;;17.30;84.60;;;;;;20766296;28;20438;-45
2022/09/19 10:05:42;;;;;;;1.17;0.20;;;18.10;83.00;;;;;;20802188;28;20473;-48
2022/09/19 10:15:53;;;;;;;0.50;0.30;;;18.30;73.70;;;;;;20800290;28;20085;-44
2022/09/19 10:26:04;;;;;;;1.02;0.30;;;17.10;72.40;;;;;;20832095;28;20552;-47
2022/09/19 10:36:21;;;;;;;1.65;0.20;;;16.50;71.60;;;;;;20801050;28;20092;-45
2022/09/19 10:46:31;;;;;;;0.60;0.30;;;16.90;73.00;;;;;;20748312;28;20475;-58
2022/09/19 10:57:05;;;;;;;0.98;0.40;;;17.90;82.20;;;;;;20718883;28;20573;-50
2022/09/19 11:07:16;;;;;;;1.42;0.40;;;18.90;77.10;;;;;;20754276;28;20038;-46
2022/09/19 11:17:29;;;;;;;0.57;0.40;;;19.20;77.70;;;;;;20828132;28;20037;-46
2022/09/19 11:28:12;;;;;;;0.52;0.30;;;19.20;76.40;;;;;;20794885;28;20095;-46
2022/09/19 11:38:46;;;;;;;0.28;0.20;;;19.50;76.60;;;;;;20826772;28;20083;-59
2022/09/19 11:49:25;;;;;;;0.43;0.20;;;19.70;70.30;;;;;;20692799;28;20095;-58
2022/09/19 12:00:00;;;;;;;0.20;0.20;;;19.00;72.40;;;;;;20476740;28;20047;-58
2022/09/19 12:10:21;;;;;;;1.25;0.25;;;19.50;74.10;;;;;;20460548;28;20059;-48
2022/09/19 12:20:53;;;;;;;0.38;0.22;;;19.50;69.60;;;;;;20460559;29;20046;-45
2022/09/19 12:31:04;;;;;;;0.30;0.20;;;19.70;72.00;;;;;;20604641;28;20441;-59
2022/09/19 12:41:34;;;;;;;0.30;0.20;;;19.70;67.60;;;;;;20776757;28;20045;-59
2022/09/19 12:52:01;;;;;;;1.77;0.23;;;19.80;67.20;;;;;;20742434;28;20053;-57
2022/09/19 13:02:28;;;;;;;0.73;0.50;;;19.60;63.30;;;;;;20788733;28;20045;-44
2022/09/19 13:12:39;;;;;;;0.98;0.43;;;19.80;72.20;;;;;;20837495;28;20107;-59
2022/09/19 13:33:28;;;;;;;0.90;0.50;;;20.60;72.00;;;;;;20835884;28;20096;-59
2022/09/19 13:43:46;;;;;;;0.98;0.65;;;20.90;70.70;;;;;;20786766;28;20168;-46
2022/09/19 13:54:13;;;;;;;1.13;0.47;;;20.50;71.70;;;;;;20789534;28;20168;-44
2022/09/19 14:14:41;;;;;;;0.30;0.20;;;19.00;68.80;;;;;;20733986;28;20084;-45
2022/09/19 14:24:46;;;;;;;1.77;0.70;;;18.40;65.30;;;;;;20794682;28;20033;-45
2022/09/19 14:35:15;;;;;;;2.35;0.73;;;17.70;77.90;;;;;;20831515;28;20029;-50
2022/09/19 14:45:49;;;;;;;1.53;0.67;;;15.90;80.60;;;;;;20437889;28;20035;-48
2022/09/19 14:55:59;;;;;;;1.73;0.47;;;15.00;81.90;;;;;;20470805;28;20100;-47
2022/09/19 15:06:14;;;;;;;;;;;14.30;89.30;;;;;;20482421;29;20138;-45
2022/09/19 15:16:17;;;;;;;3.85;1.92;;;14.30;83.30;;;;;;20580347;28;19913;-59
2022/09/19 15:26:26;;;;;;;5.97;1.98;;;14.80;86.30;;;;;;20794653;28;20033;-46
2022/09/19 15:36:35;;;;;;;0.37;0.20;;;14.90;89.60;;;;;;20826609;28;20095;-46
2022/09/19 15:46:45;;;;;;;0.73;0.15;;;14.50;83.90;;;;;;20768576;28;20103;-45
2022/09/19 15:56:49;;;;;;;0.10;0.10;;;13.40;82.80;;;;;;20804669;28;20044;-48
2022/09/19 16:17:15;;;;;;;;;;;11.80;89.00;;;;;;20824374;28;20401;-57
2022/09/19 16:27:27;;;;;;;0.20;0.10;;;11.20;91.00;;;;;;20806518;28;19909;-58
2022/09/19 16:37:38;;;;;;;2.10;0.10;;;10.80;91.30;;;;;;20763167;28;20112;-46
2022/09/19 16:47:42;;;;;;;1.92;0.10;;;10.30;91.80;;;;;;20743244;28;20112;-58
2022/09/19 16:57:45;;;;;;;0.17;0.03;;;10.00;92.20;;;;;;20821419;28;20038;-46
2022/09/19 17:07:48;;;;;;;0.30;0.10;;;9.80;92.60;;;;;;20820788;28;20107;-46
2022/09/19 17:17:52;;;;;;;0.00;0.00;;;9.50;92.40;;;;;;20816097;28;20112;-57
2022/09/19 17:27:54;;;;;;;1.23;0.10;;;9.30;91.90;;;;;;20738833;28;20038;-63
2022/09/19 17:37:56;;;;;;;0.10;0.00;;;9.10;91.50;;;;;;20783534;28;20552;-61
2022/09/19 17:48:01;;;;;;;0.10;0.00;;;8.90;92.00;;;;;;20751295;28;20454;-57
2022/09/19 17:58:09;;;;;;;0.22;0.00;;;8.70;91.90;;;;;;20766722;28;20478;-58
2022/09/19 18:08:12;;;;;;;0.00;0.00;;;8.50;91.10;;;;;;20783494;28;20103;-62
2022/09/19 18:18:14;;;;;;;0.10;0.00;;;8.30;91.40;;;;;;20800256;28;20045;-64
2022/09/19 18:28:17;;;;;;;0.00;0.00;;;8.50;89.00;;;;;;20750821;28;20037;-64
2022/09/19 18:38:19;;;;;;;0.00;0.00;;;8.60;88.30;;;;;;20781907;28;20135;-65
2022/09/19 18:48:22;;;;;;;0.10;0.00;;;8.60;86.40;;;;;;20732272;28;20053;-59
2022/09/19 18:58:24;;;;;;;0.30;0.00;;;8.60;86.40;;;;;;20733106;28;20038;-62
2022/09/19 19:08:29;;;;;;;0.10;0.00;;;8.50;86.80;;;;;;20780224;28;20037;-63
2022/09/19 19:18:33;;;;;;;0.00;0.00;;;8.60;86.30;;;;;;20780976;28;20045;-62
2022/09/19 19:28:36;;;;;;;0.10;0.00;;;8.50;86.20;;;;;;20760771;28;20042;-60
2022/09/19 19:38:44;;;;;;;0.15;0.00;;;8.60;85.70;;;;;;20728485;28;20096;-59
2022/09/19 19:48:49;;;;;;;0.57;0.10;;;8.50;85.80;;;;;;20756518;28;20041;-60
2022/09/19 19:58:53;;;;;;;0.17;0.10;;;8.60;86.00;;;;;;20792909;28;20041;-59
2022/09/19 20:08:58;;;;;;;0.75;0.00;;;8.60;84.60;;;;;;20807918;28;20037;-58
2022/09/19 20:19:03;;;;;;;0.30;0.00;;;8.70;85.30;;;;;;20790216;28;20042;-59
2022/09/19 20:29:10;;;;;;;0.20;0.00;;;8.60;85.50;;;;;;20791878;28;20455;-59
2022/09/19 20:39:13;;;;;;;0.20;0.03;;;8.40;84.40;;;;;;20751807;28;20072;-60
2022/09/19 20:49:16;;;;;;;2.40;0.10;;;8.40;83.30;;;;;;20739811;28;20153;-61
2022/09/19 20:59:21;;;;;;;0.20;0.00;;;8.50;84.10;;;;;;20821523;28;20449;-61
2022/09/19 21:09:24;;;;;;;0.00;0.00;;;8.20;83.90;;;;;;20804409;28;20103;-60
2022/09/19 21:19:27;;;;;;;0.15;0.00;;;8.10;82.70;;;;;;20820478;28;20029;-60
2022/09/19 21:29:29;;;;;;;0.10;0.00;;;8.10;83.20;;;;;;20830205;28;20075;-60
2022/09/19 21:39:32;;;;;;;3.28;0.10;;;8.10;84.10;;;;;;20835852;28;20041;-59
2022/09/19 21:49:34;;;;;;;0.10;0.00;;;7.90;84.20;;;;;;20708710;28;20513;-59
2022/09/19 21:59:37;;;;;;;0.00;0.00;;;7.90;83.70;;;;;;20835991;28;20033;-59
2022/09/19 22:09:40;;;;;;;0.00;0.00;;;7.70;84.90;;;;;;20817279;28;20033;-58
2022/09/19 22:19:42;;;;;;;0.00;0.00;;;7.80;82.30;;;;;;20833022;28;20083;-59
2022/09/19 22:29:45;;;;;;;0.10;0.05;;;7.90;82.60;;;;;;20832545;28;20041;-62
2022/09/19 22:39:47;;;;;;;0.10;0.00;;;7.80;82.50;;;;;;20828449;28;20041;-61
2022/09/19 22:49:50;;;;;;;0.20;0.00;;;8.00;82.40;;;;;;20753104;28;20041;-61
2022/09/19 22:59:52;;;;;;;1.10;0.10;;;8.10;80.60;;;;;;20830447;28;20095;-60
2022/09/19 23:09:56;;;;;;;0.00;0.00;;;8.00;80.70;;;;;;20797582;28;20038;-60
2022/09/19 23:19:58;;;;;;;0.90;0.03;;;7.80;81.70;;;;;;20794949;28;20037;-62
2022/09/19 23:30:00;;;;;;;0.00;0.00;;;8.00;79.10;;;;;;20827437;28;20441;-59
2022/09/19 23:40:03;;;;;;;0.13;0.00;;;7.90;79.00;;;;;;20823165;28;20046;-59
2022/09/19 23:50:06;;;;;;;0.55;0.00;;;7.90;78.70;;;;;;20766083;28;20073;-58
